createdAt,value
2022-09-21T00:01:31.579Z,76.46
2022-09-21T00:04:02.833Z,76.07
2022-09-21T00:06:34.293Z,76.47
2022-09-21T00:09:05.467Z,76.42
2022-09-21T00:11:35.701Z,76.25
2022-09-21T00:14:10.772Z,76.35
2022-09-21T00:16:41.299Z,76.63
2022-09-21T00:19:10.545Z,76.40
2022-09-21T00:21:39.010Z,76.11
2022-09-21T00:24:07.743Z,76.03
2022-09-21T00:26:35.599Z,76.28
2022-09-21T00:29:04.383Z,76.59
2022-09-21T00:31:33.298Z,76.33
2022-09-21T00:34:01.918Z,76.44
2022-09-21T00:36:29.755Z,76.38
2022-09-21T00:39:01.875Z,76.25
2022-09-21T00:41:32.825Z,76.08
2022-09-21T00:44:16.005Z,76.24
2022-09-21T00:46:46.793Z,76.67
2022-09-21T00:49:15.829Z,76.79
2022-09-21T00:51:44.655Z,76.88
2022-09-21T00:54:17.191Z,76.60
2022-09-21T00:56:45.694Z,76.48
2022-09-21T00:59:21.010Z,76.82
2022-09-21T01:01:50.142Z,76.71
2022-09-21T01:04:19.048Z,76.38
2022-09-21T01:06:50.463Z,76.41
2022-09-21T01:09:19.064Z,76.37
2022-09-21T01:12:03.104Z,76.36
2022-09-21T01:15:00.259Z,76.53
2022-09-21T01:17:51.918Z,76.45
2022-09-21T01:20:41.287Z,76.84
2022-09-21T01:23:15.215Z,77.08
2022-09-21T01:25:53.877Z,77.15
2022-09-21T01:28:56.158Z,77.21
2022-09-21T01:31:40.040Z,77.46
2022-09-21T01:34:18.879Z,77.49
2022-09-21T01:36:49.986Z,77.42
2022-09-21T01:39:21.838Z,77.30
2022-09-21T01:41:52.270Z,77.48
2022-09-21T01:44:24.004Z,77.37
2022-09-21T01:46:53.318Z,77.16
2022-09-21T01:49:36.616Z,76.72
2022-09-21T01:52:21.517Z,76.85
2022-09-21T01:54:56.683Z,76.56
2022-09-21T01:57:44.668Z,76.77
2022-09-21T02:00:13.350Z,76.69
2022-09-21T02:03:02.808Z,76.86
2022-09-21T02:05:30.880Z,76.55
2022-09-21T02:08:00.101Z,76.35
2022-09-21T02:10:39.260Z,76.60
2022-09-21T02:13:09.809Z,76.57
2022-09-21T02:15:43.608Z,76.72
2022-09-21T02:18:16.171Z,77.03
2022-09-21T02:20:52.476Z,77.14
2022-09-21T02:23:37.483Z,77.30
2022-09-21T02:26:13.523Z,77.25
2022-09-21T02:28:53.748Z,77.26
2022-09-21T02:31:21.554Z,77.15
2022-09-21T02:34:16.860Z,77.54
2022-09-21T02:36:50.087Z,77.77
2022-09-21T02:39:25.109Z,77.98
2022-09-21T02:42:07.731Z,77.86
2022-09-21T02:44:52.562Z,78.01
2022-09-21T02:47:27.144Z,78.08
2022-09-21T02:50:01.938Z,78.21
2022-09-21T02:52:32.563Z,78.15
2022-09-21T02:55:02.245Z,78.23
2022-09-21T02:57:31.173Z,78.02
2022-09-21T02:59:59.340Z,77.55
2022-09-21T03:02:37.514Z,77.32
2022-09-21T03:05:06.291Z,77.17
2022-09-21T03:07:34.517Z,77.12
2022-09-21T03:10:03.042Z,77.26
2022-09-21T03:12:32.903Z,77.37
2022-09-21T03:15:00.807Z,77.07
2022-09-21T03:17:28.703Z,77.05
2022-09-21T03:19:56.717Z,77.19
2022-09-21T03:22:24.980Z,77.87
2022-09-21T03:24:53.479Z,77.72
2022-09-21T03:27:22.387Z,77.60
2022-09-21T03:29:50.169Z,78.07
2022-09-21T03:32:18.084Z,77.60
2022-09-21T03:34:45.859Z,77.37
2022-09-21T03:37:13.750Z,77.55
2022-09-21T03:39:41.680Z,77.85
2022-09-21T03:42:10.501Z,77.78
2022-09-21T03:44:38.402Z,77.55
2022-09-21T03:47:06.839Z,77.69
2022-09-21T03:49:35.230Z,77.81
2022-09-21T03:52:03.955Z,77.33
2022-09-21T03:54:31.801Z,77.27
2022-09-21T03:56:59.779Z,77.62
2022-09-21T03:59:28.157Z,77.56
2022-09-21T04:01:56.155Z,77.72
2022-09-21T04:04:23.990Z,77.79
2022-09-21T04:06:52.240Z,77.67
2022-09-21T04:09:20.184Z,77.60
2022-09-21T04:11:48.525Z,77.61
2022-09-21T04:14:17.569Z,77.62
2022-09-21T04:16:45.439Z,77.61
2022-09-21T04:19:13.307Z,77.98
2022-09-21T04:21:41.195Z,77.80
2022-09-21T04:24:09.187Z,77.89
2022-09-21T04:26:37.126Z,78.13
2022-09-21T04:29:05.623Z,78.18
2022-09-21T04:31:34.231Z,78.45
2022-09-21T04:34:02.098Z,78.88
2022-09-21T04:36:34.330Z,78.73
2022-09-21T04:39:05.969Z,79.34
2022-09-21T04:41:34.225Z,79.39
2022-09-21T04:44:02.395Z,79.48
2022-09-21T04:46:30.709Z,79.39
2022-09-21T04:48:58.790Z,79.25
2022-09-21T04:51:26.648Z,78.92
2022-09-21T04:53:54.654Z,79.18
2022-09-21T04:56:22.600Z,78.92
2022-09-21T04:58:50.427Z,78.95
2022-09-21T05:01:18.314Z,78.75
2022-09-21T05:03:46.333Z,78.67
2022-09-21T05:06:15.166Z,78.79
2022-09-21T05:09:01.800Z,78.67
2022-09-21T05:11:29.991Z,78.96
2022-09-21T05:13:57.850Z,78.91
2022-09-21T05:16:25.647Z,79.03
2022-09-21T05:18:57.104Z,79.30
2022-09-21T05:21:25.059Z,79.21
2022-09-21T05:23:53.095Z,79.38
2022-09-21T05:26:21.039Z,79.44
2022-09-21T05:28:49.623Z,79.44
2022-09-21T05:31:18.437Z,79.39
2022-09-21T05:33:58.809Z,79.19
2022-09-21T05:36:36.133Z,79.16
2022-09-21T05:39:04.266Z,79.06
2022-09-21T05:41:32.547Z,78.62
2022-09-21T05:44:00.742Z,78.68
2022-09-21T05:46:41.758Z,78.49
2022-09-21T05:49:21.108Z,78.75
2022-09-21T05:52:27.488Z,78.54
2022-09-21T05:55:15.116Z,78.15
2022-09-21T05:58:13.861Z,78.26
2022-09-21T06:01:03.013Z,78.25
2022-09-21T06:03:32.461Z,77.75
2022-09-21T06:06:00.322Z,77.28
2022-09-21T06:08:28.435Z,77.10
2022-09-21T06:10:56.586Z,77.07
2022-09-21T06:13:24.491Z,76.38
2022-09-21T06:15:52.859Z,76.67
2022-09-21T06:18:20.737Z,76.43
2022-09-21T06:20:48.715Z,76.32
2022-09-21T06:23:16.583Z,75.85
2022-09-21T06:25:44.449Z,75.42
2022-09-21T06:28:13.720Z,75.52
2022-09-21T06:30:42.989Z,75.41
2022-09-21T06:33:11.133Z,74.84
2022-09-21T06:35:40.530Z,75.00
2022-09-21T06:38:08.436Z,74.53
2022-09-21T06:40:37.601Z,74.77
2022-09-21T06:43:06.013Z,74.75
2022-09-21T06:45:34.594Z,74.32
2022-09-21T06:48:02.710Z,74.22
2022-09-21T06:50:30.598Z,73.48
2022-09-21T06:53:02.803Z,73.20
2022-09-21T06:55:31.834Z,72.89
2022-09-21T06:58:02.191Z,73.02
2022-09-21T07:00:30.870Z,72.67
2022-09-21T07:02:59.863Z,72.31
2022-09-21T07:05:27.815Z,72.19
2022-09-21T07:07:59.318Z,72.32
2022-09-21T07:10:27.541Z,72.31
2022-09-21T07:12:55.684Z,71.91
2022-09-21T07:15:23.805Z,71.58
2022-09-21T07:17:59.108Z,71.14
2022-09-21T07:20:33.049Z,70.90
2022-09-21T07:23:01.930Z,70.42
2022-09-21T07:25:30.030Z,70.09
2022-09-21T07:28:01.288Z,69.95
2022-09-21T07:30:30.074Z,68.86
2022-09-21T07:32:58.884Z,69.11
2022-09-21T07:35:26.847Z,68.21
2022-09-21T07:37:57.631Z,68.09
2022-09-21T07:40:25.739Z,67.97
2022-09-21T07:42:58.135Z,67.65
2022-09-21T07:45:27.267Z,67.35
2022-09-21T07:47:56.650Z,67.12
2022-09-21T07:50:24.601Z,67.16
2022-09-21T07:52:52.639Z,67.53
2022-09-21T07:55:20.669Z,67.64
2022-09-21T07:58:08.830Z,67.24
2022-09-21T08:00:37.534Z,67.55
2022-09-21T08:03:06.827Z,67.50
2022-09-21T08:05:34.933Z,67.90
2022-09-21T08:08:02.967Z,68.25
2022-09-21T08:10:32.297Z,67.23
2022-09-21T08:13:00.231Z,66.55
2022-09-21T08:15:47.473Z,65.69
2022-09-21T08:18:16.206Z,65.33
2022-09-21T08:20:44.199Z,65.27
2022-09-21T08:23:12.733Z,65.45
2022-09-21T08:25:41.268Z,65.08
2022-09-21T08:28:10.166Z,64.60
2022-09-21T08:30:38.405Z,64.98
2022-09-21T08:33:07.240Z,65.49
2022-09-21T08:35:35.777Z,65.32
2022-09-21T08:38:03.732Z,65.33
2022-09-21T08:40:34.113Z,65.04
2022-09-21T08:43:28.327Z,64.15
2022-09-21T08:45:58.456Z,63.75
2022-09-21T08:48:36.599Z,63.45
2022-09-21T08:51:10.131Z,62.85
2022-09-21T08:53:40.668Z,63.58
2022-09-21T08:56:13.528Z,62.66
2022-09-21T08:58:42.619Z,62.33
2022-09-21T09:01:33.798Z,61.45
2022-09-21T09:04:05.892Z,61.38
2022-09-21T09:06:59.639Z,61.84
2022-09-21T09:09:56.088Z,62.65
2022-09-21T09:12:45.744Z,62.10
2022-09-21T09:15:38.530Z,61.43
2022-09-21T09:18:42.745Z,61.70
2022-09-21T09:21:16.318Z,61.09
2022-09-21T09:24:01.644Z,61.11
2022-09-21T09:26:44.461Z,59.35
2022-09-21T09:29:29.551Z,57.38
2022-09-21T09:32:01.460Z,58.56
2022-09-21T09:34:34.343Z,59.34
2022-09-21T09:37:27.758Z,59.35
2022-09-21T09:39:58.015Z,59.80
2022-09-21T09:42:34.704Z,59.20
2022-09-21T09:45:25.341Z,59.16
2022-09-21T09:48:02.733Z,59.11
2022-09-21T09:50:35.415Z,59.00
2022-09-21T09:53:19.115Z,58.43
2022-09-21T09:55:50.404Z,56.31
2022-09-21T09:58:26.024Z,56.35
2022-09-21T10:00:57.675Z,56.48
2022-09-21T10:03:27.931Z,56.61
2022-09-21T10:05:56.668Z,56.91
2022-09-21T10:08:33.596Z,56.04
2022-09-21T10:11:01.781Z,56.07
2022-09-21T10:13:34.205Z,55.69
2022-09-21T10:16:04.778Z,56.17
2022-09-21T10:18:45.168Z,54.79
2022-09-21T10:21:20.746Z,53.96
2022-09-21T10:23:53.054Z,54.04
2022-09-21T10:26:22.291Z,54.81
2022-09-21T10:28:56.300Z,55.44
2022-09-21T10:31:27.233Z,54.93
2022-09-21T10:34:16.347Z,53.80
2022-09-21T10:36:51.933Z,53.60
2022-09-21T10:39:21.428Z,54.19
2022-09-21T10:41:52.939Z,54.72
2022-09-21T10:44:26.990Z,54.89
2022-09-21T10:49:29.017Z,53.35
2022-09-21T10:51:59.529Z,53.34
2022-09-21T10:54:33.656Z,53.16
2022-09-21T10:57:07.762Z,53.09
2022-09-21T10:59:38.869Z,53.67
2022-09-21T11:02:38.775Z,53.55
2022-09-21T11:05:22.528Z,53.19
2022-09-21T11:08:22.648Z,52.97
2022-09-21T11:11:14.249Z,53.07
2022-09-21T11:13:54.463Z,52.88
2022-09-21T11:16:47.024Z,51.06
2022-09-21T11:19:25.491Z,50.82
2022-09-21T11:22:08.752Z,50.49
2022-09-21T11:24:42.935Z,51.65
2022-09-21T11:27:21.641Z,51.58
2022-09-21T11:29:49.351Z,51.30
2022-09-21T11:32:55.221Z,52.54
2022-09-21T11:35:53.139Z,53.25
2022-09-21T11:39:00.063Z,53.60
2022-09-21T11:41:36.992Z,52.77
2022-09-21T11:44:22.937Z,52.87
2022-09-21T11:47:05.699Z,52.38
2022-09-21T11:50:29.286Z,51.99
2022-09-21T11:53:11.678Z,51.19
2022-09-21T11:56:06.977Z,52.55
2022-09-21T11:58:53.268Z,52.98
2022-09-21T12:01:31.533Z,53.47
2022-09-21T12:04:17.908Z,53.70
2022-09-21T12:07:07.016Z,54.31
2022-09-21T12:09:56.826Z,53.90
2022-09-21T12:12:38.172Z,55.11
2022-09-21T12:15:18.628Z,54.90
2022-09-21T12:18:16.287Z,55.17
2022-09-21T12:20:44.137Z,55.16
2022-09-21T12:23:27.454Z,55.52
2022-09-21T12:25:58.827Z,55.79
2022-09-21T12:28:39.618Z,56.08
2022-09-21T12:31:26.721Z,55.79
2022-09-21T12:34:15.800Z,54.91
2022-09-21T12:36:52.816Z,54.97
2022-09-21T12:39:39.007Z,54.99
2022-09-21T12:42:28.521Z,55.38
2022-09-21T12:45:03.895Z,54.64
2022-09-21T12:47:51.755Z,54.13
2022-09-21T12:50:44.588Z,53.77
2022-09-21T12:53:20.599Z,53.81
2022-09-21T12:56:16.431Z,52.10
2022-09-21T12:59:12.732Z,51.08
2022-09-21T13:01:57.180Z,51.58
2022-09-21T13:04:43.416Z,53.15
2022-09-21T13:07:49.966Z,53.99
2022-09-21T13:10:45.420Z,54.25
2022-09-21T13:13:25.657Z,54.41
2022-09-21T13:15:53.903Z,54.75
2022-09-21T13:18:35.848Z,55.02
2022-09-21T13:21:26.549Z,55.32
2022-09-21T13:23:59.104Z,54.99
2022-09-21T13:26:31.132Z,54.03
2022-09-21T13:28:59.065Z,52.97
2022-09-21T13:31:41.906Z,53.31
2022-09-21T13:34:16.107Z,53.22
2022-09-21T13:36:43.864Z,52.97
2022-09-21T13:39:20.532Z,53.16
2022-09-21T13:42:04.121Z,53.01
2022-09-21T13:44:44.141Z,53.17
2022-09-21T13:47:12.626Z,53.80
2022-09-21T13:49:54.082Z,54.10
2022-09-21T13:52:32.495Z,54.16
2022-09-21T13:55:04.304Z,54.26
2022-09-21T13:57:45.629Z,54.68
2022-09-21T14:00:14.024Z,54.90
2022-09-21T14:02:51.720Z,54.47
2022-09-21T14:05:35.672Z,54.53
2022-09-21T14:08:18.252Z,54.08
2022-09-21T14:10:52.793Z,54.51
2022-09-21T14:13:37.596Z,55.05
2022-09-21T14:16:40.126Z,55.51
2022-09-21T14:19:17.159Z,55.62
2022-09-21T14:22:09.633Z,54.97
2022-09-21T14:24:47.148Z,55.06
2022-09-21T14:27:26.745Z,54.59
2022-09-21T14:30:08.147Z,54.56
2022-09-21T14:32:43.769Z,53.47
2022-09-21T14:35:24.096Z,53.82
2022-09-21T14:38:00.207Z,53.49
2022-09-21T14:40:36.893Z,53.61
2022-09-21T14:43:15.799Z,53.36
2022-09-21T14:46:02.475Z,52.88
2022-09-21T14:48:56.001Z,52.81
2022-09-21T14:51:38.440Z,53.06
2022-09-21T14:54:21.645Z,53.56
2022-09-21T14:56:54.809Z,54.39
2022-09-21T14:59:40.296Z,54.96
2022-09-21T15:02:23.702Z,55.65
2022-09-21T15:05:31.515Z,56.68
2022-09-21T15:08:30.006Z,57.03
2022-09-21T15:11:12.460Z,57.39
2022-09-21T15:14:11.324Z,57.99
2022-09-21T15:16:43.386Z,58.61
2022-09-21T15:19:21.786Z,59.01
2022-09-21T15:22:09.716Z,59.56
2022-09-21T15:24:37.678Z,60.28
2022-09-21T15:27:16.019Z,60.81
2022-09-21T15:29:49.109Z,61.16
2022-09-21T15:32:41.544Z,61.71
2022-09-21T15:35:15.349Z,62.09
2022-09-21T15:37:43.522Z,62.57
2022-09-21T15:40:26.654Z,62.68
2022-09-21T15:43:19.157Z,62.93
2022-09-21T15:45:46.930Z,62.35
2022-09-21T15:48:14.907Z,62.50
2022-09-21T15:50:45.054Z,62.84
2022-09-21T15:53:21.964Z,62.95
2022-09-21T15:55:50.669Z,63.59
2022-09-21T15:58:37.254Z,63.99
2022-09-21T16:01:17.251Z,64.26
2022-09-21T16:03:45.324Z,64.42
2022-09-21T16:06:22.548Z,64.76
2022-09-21T16:08:50.968Z,64.93
2022-09-21T16:11:37.974Z,65.20
2022-09-21T16:14:31.547Z,65.52
2022-09-21T16:17:15.144Z,65.71
2022-09-21T16:20:03.517Z,65.90
2022-09-21T16:22:47.676Z,66.33
2022-09-21T16:25:16.180Z,66.21
2022-09-21T16:27:52.457Z,66.67
2022-09-21T16:30:51.255Z,66.62
2022-09-21T16:33:41.268Z,66.65
2022-09-21T16:36:22.334Z,66.69
2022-09-21T16:38:50.596Z,66.89
2022-09-21T16:41:19.290Z,67.27
2022-09-21T16:43:47.265Z,67.35
2022-09-21T16:46:15.258Z,66.92
2022-09-21T16:48:44.452Z,67.33
2022-09-21T16:51:13.417Z,67.29
2022-09-21T16:53:41.573Z,67.40
2022-09-21T16:56:15.497Z,67.91
2022-09-21T16:58:45.267Z,68.02
2022-09-21T17:01:16.327Z,67.88
2022-09-21T17:03:46.565Z,68.20
2022-09-21T17:06:17.513Z,68.19
2022-09-21T17:08:49.672Z,68.48
2022-09-21T17:11:20.262Z,68.93
2022-09-21T17:13:50.018Z,68.78
2022-09-21T17:16:19.777Z,69.12
2022-09-21T17:18:48.943Z,69.27
2022-09-21T17:21:17.419Z,69.29
2022-09-21T17:23:46.327Z,69.44
2022-09-21T17:26:18.063Z,69.66
2022-09-21T17:28:46.214Z,69.39
2022-09-21T17:31:19.043Z,69.59
2022-09-21T17:33:50.413Z,69.83
2022-09-21T17:36:19.422Z,69.71
2022-09-21T17:38:47.377Z,69.91
2022-09-21T17:41:24.549Z,69.94
2022-09-21T17:43:58.604Z,70.02
2022-09-21T17:46:39.007Z,69.93
2022-09-21T17:49:10.846Z,70.23
2022-09-21T17:51:57.464Z,70.61
2022-09-21T17:54:25.719Z,70.58
2022-09-21T17:57:11.969Z,70.42
2022-09-21T17:59:42.362Z,70.75
2022-09-21T18:02:23.006Z,70.65
2022-09-21T18:04:58.292Z,70.43
2022-09-21T18:07:26.472Z,70.39
2022-09-21T18:09:55.357Z,70.23
2022-09-21T18:12:38.340Z,70.34
2022-09-21T18:15:25.118Z,70.47
2022-09-21T18:18:18.950Z,70.61
2022-09-21T18:21:04.819Z,70.79
2022-09-21T18:23:41.425Z,70.97
2022-09-21T18:26:13.451Z,70.99
2022-09-21T18:28:44.915Z,70.81
2022-09-21T18:31:18.704Z,70.66
2022-09-21T18:34:13.354Z,70.93
2022-09-21T18:37:12.773Z,70.88
2022-09-21T18:40:02.988Z,70.95
2022-09-21T18:42:45.230Z,71.30
2022-09-21T18:45:19.903Z,71.31
2022-09-21T18:47:50.992Z,71.57
2022-09-21T18:50:23.747Z,71.66
2022-09-21T18:53:06.802Z,71.57
2022-09-21T18:55:37.342Z,71.44
2022-09-21T18:58:05.351Z,71.67
2022-09-21T19:00:35.275Z,71.66
2022-09-21T19:03:23.619Z,71.29
2022-09-21T19:06:13.411Z,71.56
2022-09-21T19:08:54.876Z,71.87
2022-09-21T19:11:27.072Z,71.91
2022-09-21T19:14:00.138Z,71.99
2022-09-21T19:16:44.042Z,72.07
2022-09-21T19:19:38.141Z,71.87
2022-09-21T19:22:16.721Z,72.36
2022-09-21T19:24:58.674Z,71.79
2022-09-21T19:27:36.138Z,72.30
2022-09-21T19:30:13.995Z,72.09
2022-09-21T19:32:44.792Z,72.01
2022-09-21T19:35:20.677Z,72.21
2022-09-21T19:37:50.239Z,72.21
2022-09-21T19:40:21.470Z,72.21
2022-09-21T19:43:20.990Z,72.29
2022-09-21T19:46:26.625Z,72.35
2022-09-21T19:49:03.952Z,72.64
2022-09-21T19:51:54.023Z,72.68
2022-09-21T19:54:43.338Z,72.89
2022-09-21T19:57:36.088Z,73.17
2022-09-21T20:00:07.760Z,73.16
2022-09-21T20:03:05.961Z,73.46
2022-09-21T20:05:49.722Z,73.65
2022-09-21T20:08:36.409Z,73.71
2022-09-21T20:11:19.871Z,73.78
2022-09-21T20:14:00.227Z,74.02
2022-09-21T20:16:37.438Z,74.05
2022-09-21T20:19:39.133Z,74.00
2022-09-21T20:22:13.644Z,74.00
2022-09-21T20:25:00.941Z,74.00
2022-09-21T20:27:35.006Z,74.34
2022-09-21T20:30:06.030Z,73.98
2022-09-21T20:32:37.031Z,73.83
2022-09-21T20:35:23.658Z,73.73
2022-09-21T20:37:52.080Z,73.96
2022-09-21T20:40:24.660Z,74.25
2022-09-21T20:42:54.061Z,74.13
2022-09-21T20:45:22.841Z,74.09
2022-09-21T20:47:51.961Z,74.04
2022-09-21T20:50:20.832Z,74.02
2022-09-21T20:52:48.629Z,74.22
2022-09-21T20:55:17.732Z,74.14
2022-09-21T20:57:45.680Z,74.37
2022-09-21T21:00:15.512Z,74.36
2022-09-21T21:02:44.163Z,74.40
2022-09-21T21:05:12.137Z,74.34
2022-09-21T21:07:43.741Z,74.16
2022-09-21T21:10:14.350Z,74.51
2022-09-21T21:12:42.596Z,74.38
2022-09-21T21:15:12.509Z,74.31
2022-09-21T21:17:41.295Z,74.52
2022-09-21T21:20:10.137Z,74.62
2022-09-21T21:22:38.105Z,74.51
2022-09-21T21:25:06.335Z,74.69
2022-09-21T21:27:36.156Z,74.83
2022-09-21T21:30:04.649Z,74.95
2022-09-21T21:32:32.622Z,74.98
2022-09-21T21:35:00.536Z,75.12
2022-09-21T21:37:29.425Z,75.13
2022-09-21T21:39:57.342Z,75.12
2022-09-21T21:42:25.675Z,75.62
2022-09-21T21:44:53.547Z,75.62
2022-09-21T21:47:38.608Z,75.95
2022-09-21T21:50:08.037Z,75.67
2022-09-21T21:52:35.805Z,76.04
2022-09-21T21:55:04.993Z,76.46
2022-09-21T21:57:33.364Z,76.44
2022-09-21T22:00:01.411Z,76.54
2022-09-21T22:02:29.724Z,76.57
2022-09-21T22:04:57.680Z,76.24
2022-09-21T22:07:25.644Z,76.33
2022-09-21T22:09:53.579Z,76.46
2022-09-21T22:12:22.106Z,76.24
2022-09-21T22:14:49.921Z,76.39
2022-09-21T22:17:17.796Z,76.31
2022-09-21T22:19:45.656Z,75.84
2022-09-21T22:22:13.597Z,76.01
2022-09-21T22:24:41.455Z,76.27
2022-09-21T22:27:09.692Z,76.29
2022-09-21T22:29:37.490Z,75.99
2022-09-21T22:32:05.428Z,76.19
2022-09-21T22:34:33.295Z,76.13
2022-09-21T22:37:01.234Z,76.31
2022-09-21T22:39:29.094Z,76.15
2022-09-21T22:41:57.375Z,76.27
2022-09-21T22:44:25.212Z,76.50
2022-09-21T22:46:52.988Z,76.55
2022-09-21T22:49:20.809Z,76.52
2022-09-21T22:51:48.640Z,76.48
2022-09-21T22:54:16.485Z,76.30
2022-09-21T22:56:44.255Z,76.23
2022-09-21T22:59:12.178Z,76.38
2022-09-21T23:01:41.462Z,76.42
2022-09-21T23:04:12.003Z,76.40
2022-09-21T23:06:42.858Z,76.49
2022-09-21T23:09:20.537Z,76.58
2022-09-21T23:11:53.557Z,76.62
2022-09-21T23:14:23.338Z,76.44
2022-09-21T23:16:52.197Z,76.62
2022-09-21T23:19:20.414Z,76.55
2022-09-21T23:21:50.249Z,76.51
2022-09-21T23:24:19.908Z,76.71
2022-09-21T23:26:51.878Z,76.40
2022-09-21T23:29:19.945Z,76.41
2022-09-21T23:31:48.200Z,76.44
2022-09-21T23:34:16.750Z,76.33
2022-09-21T23:36:45.877Z,76.37
2022-09-21T23:39:15.611Z,76.48
2022-09-21T23:41:43.975Z,76.36
2022-09-21T23:44:12.017Z,76.28
2022-09-21T23:46:41.162Z,76.44
2022-09-21T23:49:09.849Z,76.34
2022-09-21T23:51:37.764Z,76.42
2022-09-21T23:54:05.787Z,76.41
2022-09-21T23:56:34.008Z,76.18
2022-09-21T23:59:02.145Z,76.54
